Time,TemperatureF,DewpointF,PressureIn,WindDirection,WindDirectionDegrees,WindSpeedMPH,WindSpeedGustMPH,Humidity,HourlyPrecipIn,Conditions,Clouds,dailyrainin,SoftwareType,DateUTC
2013-07-24 00:10:00,62.6,45.7,30.02,SW,225,0.0,-999.0,54,-99.99,,,0.00,Acu-Link.com,2013-07-24 06:10:00,
2013-07-24 00:25:00,60.4,47.7,30.03,NE,45,2.2,-999.0,63,-99.99,,,0.00,Acu-Link.com,2013-07-24 06:25:00,
2013-07-24 00:40:00,59.5,46.0,30.04,WNW,292,0.0,-999.0,61,-99.99,,,0.00,Acu-Link.com,2013-07-24 06:40:00,
2013-07-24 00:56:00,59.4,48.0,30.03,NNW,337,0.0,-999.0,66,-99.99,,,0.00,Acu-Link.com,2013-07-24 06:56:00,
2013-07-24 01:11:00,58.5,47.6,30.03,SSE,157,0.0,-999.0,67,-99.99,,,0.00,Acu-Link.com,2013-07-24 07:11:00,
2013-07-24 01:26:00,57.6,45.5,30.04,NNW,337,0.0,-999.0,64,-99.99,,,0.00,Acu-Link.com,2013-07-24 07:26:00,
2013-07-24 01:42:00,58.3,45.8,30.03,West,270,0.0,-999.0,63,-99.99,,,0.00,Acu-Link.com,2013-07-24 07:42:00,
2013-07-24 01:57:00,58.6,46.0,30.02,NNE,22,3.2,-999.0,63,-99.99,,,0.00,Acu-Link.com,2013-07-24 07:57:00,
2013-07-24 02:12:00,58.3,45.3,30.01,North,0,2.7,-999.0,62,-99.99,,,0.00,Acu-Link.com,2013-07-24 08:12:00,
2013-07-24 02:27:00,57.9,45.4,30.01,ENE,67,1.7,-999.0,63,-99.99,,,0.00,Acu-Link.com,2013-07-24 08:27:00,
2013-07-24 02:42:00,56.3,45.9,30.01,SW,225,0.0,-999.0,68,-99.99,,,0.00,Acu-Link.com,2013-07-24 08:42:00,
2013-07-24 02:58:00,55.4,46.5,30.01,NNE,22,0.0,-999.0,72,-99.99,,,0.00,Acu-Link.com,2013-07-24 08:58:00,
2013-07-24 03:13:00,54.1,46.7,30.01,NE,45,2.7,-999.0,76,-99.99,,,0.00,Acu-Link.com,2013-07-24 09:13:00,
2013-07-24 03:28:00,55.2,44.8,30.02,NNW,337,3.7,-999.0,68,-99.99,,,0.00,Acu-Link.com,2013-07-24 09:28:00,
2013-07-24 03:43:00,55.9,46.3,30.01,WSW,247,0.0,-999.0,70,-99.99,,,0.00,Acu-Link.com,2013-07-24 09:43:00,
2013-07-24 03:58:00,54.0,46.6,30.01,NW,315,0.0,-999.0,76,-99.99,,,0.00,Acu-Link.com,2013-07-24 09:58:00,
2013-07-24 04:13:00,55.2,45.6,30.02,North,0,2.7,-999.0,70,-99.99,,,0.00,Acu-Link.com,2013-07-24 10:13:00,
2013-07-24 04:29:00,55.0,47.6,30.01,SSW,202,1.7,-999.0,76,-99.99,,,0.00,Acu-Link.com,2013-07-24 10:29:00,
2013-07-24 04:44:00,54.1,48.1,30.03,WSW,247,0.0,-999.0,80,-99.99,,,0.00,Acu-Link.com,2013-07-24 10:44:00,
2013-07-24 04:59:00,53.8,47.1,30.01,West,270,0.0,-999.0,78,-99.99,,,0.00,Acu-Link.com,2013-07-24 10:59:00,
2013-07-24 05:15:00,53.6,47.2,30.02,WNW,292,2.7,-999.0,79,-99.99,,,0.00,Acu-Link.com,2013-07-24 11:15:00,
2013-07-24 05:30:00,52.9,46.6,30.02,SSW,202,0.0,-999.0,79,-99.99,,,0.00,Acu-Link.com,2013-07-24 11:30:00,
2013-07-24 05:45:00,52.5,47.5,30.03,West,270,0.0,-999.0,83,-99.99,,,0.00,Acu-Link.com,2013-07-24 11:45:00,
2013-07-24 06:01:00,52.0,47.0,30.04,NNE,22,0.0,-999.0,83,-99.99,,,0.00,Acu-Link.com,2013-07-24 12:01:00,
2013-07-24 06:16:00,51.3,48.5,30.04,North,0,0.0,-999.0,90,-99.99,,,0.00,Acu-Link.com,2013-07-24 12:16:00,
2013-07-24 06:31:00,51.1,48.0,30.05,ENE,67,0.0,-999.0,89,-99.99,,,0.00,Acu-Link.com,2013-07-24 12:31:00,
2013-07-24 06:46:00,51.1,49.7,30.06,North,0,0.0,-999.0,95,-99.99,,,0.00,Acu-Link.com,2013-07-24 12:46:00,
2013-07-24 07:01:00,51.3,49.6,30.05,NNE,22,2.2,-999.0,94,-99.99,,,0.00,Acu-Link.com,2013-07-24 13:01:00,
2013-07-24 07:16:00,52.5,49.9,30.07,West,270,0.0,-999.0,91,-99.99,,,0.00,Acu-Link.com,2013-07-24 13:16:00,
2013-07-24 07:32:00,54.5,47.1,30.06,ESE,112,0.0,-999.0,76,-99.99,,,0.00,Acu-Link.com,2013-07-24 13:32:00,
2013-07-24 07:47:00,55.9,47.7,30.05,NNE,22,3.2,-999.0,74,-99.99,,,0.00,Acu-Link.com,2013-07-24 13:47:00,
2013-07-24 08:02:00,58.1,50.6,30.06,ESE,112,0.0,-999.0,76,-99.99,,,0.00,Acu-Link.com,2013-07-24 14:02:00,
2013-07-24 08:18:00,60.8,51.0,30.07,South,180,0.0,-999.0,70,-99.99,,,0.00,Acu-Link.com,2013-07-24 14:18:00,
2013-07-24 08:33:00,61.3,49.8,30.07,NE,45,0.0,-999.0,66,-99.99,,,0.00,Acu-Link.com,2013-07-24 14:33:00,
2013-07-24 08:48:00,59.2,50.5,30.08,SSW,202,4.7,-999.0,73,-99.99,,,0.00,Acu-Link.com,2013-07-24 14:48:00,
2013-07-24 09:03:00,60.4,51.0,30.07,ENE,67,0.0,-999.0,71,-99.99,,,0.00,Acu-Link.com,2013-07-24 15:03:00,
2013-07-24 09:19:00,61.5,49.6,30.06,SW,225,2.2,-999.0,65,-99.99,,,0.00,Acu-Link.com,2013-07-24 15:19:00,
2013-07-24 09:34:00,62.2,50.7,30.08,SW,225,3.2,-999.0,66,-99.99,,,0.00,Acu-Link.com,2013-07-24 15:34:00,
2013-07-24 09:49:00,65.3,52.4,30.07,NW,315,2.7,-999.0,63,-99.99,,,0.00,Acu-Link.com,2013-07-24 15:49:00,
2013-07-24 10:04:00,65.5,49.9,30.07,West,270,2.2,-999.0,57,-99.99,,,0.00,Acu-Link.com,2013-07-24 16:04:00,
2013-07-24 10:20:00,64.4,50.2,30.08,ESE,112,2.2,-999.0,60,-99.99,,,0.00,Acu-Link.com,2013-07-24 16:20:00,
2013-07-24 10:35:00,63.1,49.4,30.08,SSW,202,5.3,-999.0,61,-99.99,,,0.00,Acu-Link.com,2013-07-24 16:35:00,
2013-07-24 10:50:00,63.3,50.9,30.06,NE,45,2.7,-999.0,64,-99.99,,,0.00,Acu-Link.com,2013-07-24 16:50:00,
2013-07-24 11:05:00,63.9,51.9,30.09,East,90,3.7,-999.0,65,-99.99,,,0.00,Acu-Link.com,2013-07-24 17:05:00,
2013-07-24 11:20:00,64.8,51.0,30.07,ESE,112,0.0,-999.0,61,-99.99,,,0.00,Acu-Link.com,2013-07-24 17:20:00,
2013-07-24 11:36:00,66.4,51.6,30.09,SSW,202,0.0,-999.0,59,-99.99,,,0.00,Acu-Link.com,2013-07-24 17:36:00,
2013-07-24 12:06:00,67.5,53.6,30.11,NE,45,3.7,-999.0,61,-99.99,,,0.00,Acu-Link.com,2013-07-24 18:06:00,
2013-07-24 12:22:00,65.7,54.0,30.13,SSE,157,4.7,-999.0,66,-99.99,,,0.00,Acu-Link.com,2013-07-24 18:22:00,
2013-07-24 12:37:00,61.7,52.6,30.14,SSE,157,13.0,-999.0,72,-99.99,,,0.00,Acu-Link.com,2013-07-24 18:37:00,
2013-07-24 12:52:00,61.0,53.7,30.11,ENE,67,7.8,-999.0,77,-99.99,,,0.00,Acu-Link.com,2013-07-24 18:52:00,
2013-07-24 13:08:00,61.0,54.4,30.12,ENE,67,14.0,-999.0,79,-99.99,,,0.00,Acu-Link.com,2013-07-24 19:08:00,
2013-07-24 13:25:00,63.0,53.4,30.11,East,90,11.4,-999.0,71,-99.99,,,0.00,Acu-Link.com,2013-07-24 19:25:00,
2013-07-24 13:41:00,67.6,55.8,30.12,ESE,112,8.9,-999.0,66,-99.99,,,0.00,Acu-Link.com,2013-07-24 19:41:00,
2013-07-24 13:58:00,67.6,55.8,30.09,ESE,112,4.7,-999.0,66,-99.99,,,0.00,Acu-Link.com,2013-07-24 19:58:00,
2013-07-24 17:08:00,72.0,52.3,30.00,NNE,22,7.8,-999.0,50,-99.99,,,0.00,Acu-Link.com,2013-07-24 23:08:00,
2013-07-24 17:23:00,73.6,53.2,30.01,NNW,337,5.3,-999.0,49,-99.99,,,0.00,Acu-Link.com,2013-07-24 23:23:00,
2013-07-24 17:38:00,71.4,52.3,30.00,NE,45,4.2,-999.0,51,-99.99,,,0.00,Acu-Link.com,2013-07-24 23:38:00,
2013-07-24 17:53:00,73.9,54.1,29.98,North,0,2.7,-999.0,50,-99.99,,,0.00,Acu-Link.com,2013-07-24 23:53:00,
2013-07-24 18:09:00,75.2,53.0,29.98,NNW,337,3.7,-999.0,46,-99.99,,,0.00,Acu-Link.com,2013-07-25 00:09:00,
2013-07-24 18:24:00,74.7,53.1,29.96,East,90,1.7,-999.0,47,-99.99,,,0.00,Acu-Link.com,2013-07-25 00:24:00,
2013-07-24 18:58:00,70.0,52.1,29.96,West,270,0.0,-999.0,53,-99.99,,,0.00,Acu-Link.com,2013-07-25 00:58:00,
2013-07-24 19:20:00,68.4,52.1,29.97,WSW,247,0.0,-999.0,56,-99.99,,,0.00,Acu-Link.com,2013-07-25 01:20:00,
2013-07-24 19:37:00,66.7,51.0,29.95,West,270,0.0,-999.0,57,-99.99,,,0.00,Acu-Link.com,2013-07-25 01:37:00,
2013-07-24 20:04:00,65.1,51.3,29.96,WNW,292,0.0,-999.0,61,-99.99,,,0.00,Acu-Link.com,2013-07-25 02:04:00,
2013-07-24 20:22:00,63.5,52.3,29.96,NNW,337,3.2,-999.0,67,-99.99,,,0.00,Acu-Link.com,2013-07-25 02:22:00,
2013-07-24 20:40:00,63.0,52.3,29.98,WSW,247,0.0,-999.0,68,-99.99,,,0.00,Acu-Link.com,2013-07-25 02:40:00,
2013-07-24 21:01:00,61.3,51.0,29.98,WNW,292,0.0,-999.0,69,-99.99,,,0.00,Acu-Link.com,2013-07-25 03:01:00,
2013-07-24 21:33:00,59.5,49.7,29.99,South,180,0.0,-999.0,70,-99.99,,,0.00,Acu-Link.com,2013-07-25 03:33:00,
2013-07-24 21:50:00,57.4,49.9,30.01,WSW,247,0.0,-999.0,76,-99.99,,,0.00,Acu-Link.com,2013-07-25 03:50:00,
2013-07-24 22:05:00,58.1,49.5,29.99,NNE,22,3.7,-999.0,73,-99.99,,,0.00,Acu-Link.com,2013-07-25 04:05:00,
2013-07-24 22:23:00,57.4,49.5,30.00,NE,45,2.7,-999.0,75,-99.99,,,0.00,Acu-Link.com,2013-07-25 04:23:00,
2013-07-24 22:38:00,56.3,49.9,30.00,NNE,22,2.2,-999.0,79,-99.99,,,0.00,Acu-Link.com,2013-07-25 04:38:00,
2013-07-24 22:54:00,55.6,49.5,30.00,East,90,0.0,-999.0,80,-99.99,,,0.00,Acu-Link.com,2013-07-25 04:54:00,
2013-07-24 23:09:00,54.9,49.8,30.00,NW,315,0.0,-999.0,83,-99.99,,,0.00,Acu-Link.com,2013-07-25 05:09:00,
2013-07-24 23:24:00,54.1,50.3,30.00,SSW,202,0.0,-999.0,87,-99.99,,,0.00,Acu-Link.com,2013-07-25 05:24:00,